Time;durP1;ratioP1;P1;durP2;ratioP2;P2;SDS_P1;SDS_P2;PMS_P1;PMS_P2;Temp;Humidity;BMP_temperature;BMP_pressure;BME280_temperature;BME280_humidity;BME280_pressure;Samples;Min_cycle;Max_cycle;Signal;HPM_P1;HPM_P2
2023/07/22 00:01:50;;;;;;;6.82;2.33;;;;;;;29.32;50.24;98779.28;4996548;28;20222;-86
2023/07/22 00:04:17;;;;;;;5.05;2.35;;;;;;;29.31;50.24;98780.31;4995335;28;20547;-87
2023/07/22 00:06:43;;;;;;;8.38;3.00;;;;;;;29.11;50.27;98782.16;4995359;28;20542;-87
2023/07/22 00:09:09;;;;;;;6.25;2.30;;;;;;;28.74;51.77;98780.03;4996507;28;20168;-87
2023/07/22 00:11:39;;;;;;;6.65;2.85;;;;;;;28.81;51.00;98779.00;4979216;28;20246;-87
2023/07/22 00:14:06;;;;;;;4.90;1.90;;;;;;;29.06;50.88;98779.25;4996208;28;20562;-87
2023/07/22 00:16:33;;;;;;;6.32;2.20;;;;;;;29.09;49.92;98768.03;4979266;28;20184;-87
2023/07/22 00:19:00;;;;;;;6.95;3.13;;;;;;;29.15;50.22;98762.63;4981583;28;20251;-86
2023/07/22 00:21:26;;;;;;;5.75;1.80;;;;;;;29.17;49.81;98765.13;4947690;29;20750;-87
2023/07/22 00:23:54;;;;;;;6.30;2.58;;;;;;;29.23;49.89;98757.06;4940563;29;20620;-86
2023/07/22 00:26:21;;;;;;;7.13;2.55;;;;;;;29.18;49.68;98759.53;4972139;28;20208;-87
2023/07/22 00:28:48;;;;;;;4.68;2.40;;;;;;;29.19;49.15;98768.47;4944756;29;20309;-87
2023/07/22 00:31:14;;;;;;;12.77;2.20;;;;;;;28.96;49.44;98762.63;4957473;29;20201;-87
2023/07/22 00:33:41;;;;;;;4.95;2.22;;;;;;;28.98;49.92;98755.16;4958704;28;20189;-87
2023/07/22 00:36:07;;;;;;;6.28;3.63;;;;;;;28.78;50.33;98746.22;4971605;28;20192;-86
2023/07/22 00:38:34;;;;;;;5.45;2.55;;;;;;;28.71;50.47;98739.97;4975761;28;20309;-86
2023/07/22 00:41:04;;;;;;;4.22;2.25;;;;;;;28.32;51.88;98746.94;4969120;28;20173;-86
2023/07/22 00:43:31;;;;;;;6.57;2.80;;;;;;;28.07;53.13;98743.09;4956743;28;20185;-86
2023/07/22 00:45:58;;;;;;;7.15;2.50;;;;;;;28.18;52.81;98747.91;4967965;28;20194;-86
2023/07/22 00:48:25;;;;;;;4.60;2.30;;;;;;;28.20;53.26;98755.81;4944324;29;20189;-86
2023/07/22 00:50:52;;;;;;;8.32;2.40;;;;;;;28.08;53.79;98746.63;4940913;28;20212;-86
2023/07/22 00:53:22;;;;;;;6.82;2.67;;;;;;;27.89;54.31;98758.94;4948770;28;20631;-86
2023/07/22 00:55:49;;;;;;;9.27;2.78;;;;;;;28.02;53.80;98757.19;4971109;28;20223;-86
2023/07/22 00:58:16;;;;;;;6.15;1.95;;;;;;;27.78;54.23;98762.19;4967229;28;20284;-86
2023/07/22 01:00:43;;;;;;;5.18;1.95;;;;;;;27.39;55.77;98757.38;4959810;28;20187;-86
2023/07/22 01:03:10;;;;;;;5.00;1.95;;;;;;;27.39;55.62;98758.22;4975020;28;20690;-86
2023/07/22 01:05:37;;;;;;;4.10;2.30;;;;;;;27.48;55.59;98755.38;4975916;28;20180;-85
2023/07/22 01:08:04;;;;;;;9.50;2.65;;;;;;;27.53;55.31;98753.78;4975665;28;20176;-86
2023/07/22 01:10:30;;;;;;;6.00;2.28;;;;;;;27.43;55.52;98762.22;4956627;28;20614;-86
2023/07/22 01:12:57;;;;;;;8.30;2.30;;;;;;;27.15;56.42;98764.00;4973015;28;20188;-87
2023/07/22 01:15:25;;;;;;;7.07;2.65;;;;;;;27.30;55.79;98762.09;4958461;28;20267;-86
2023/07/22 01:17:52;;;;;;;6.38;2.10;;;;;;;27.41;55.60;98755.38;4944899;29;20192;-86
2023/07/22 01:20:19;;;;;;;5.10;1.98;;;;;;;27.68;54.66;98759.88;4958638;28;20242;-86
2023/07/22 01:22:55;;;;;;;5.72;2.50;;;;;;;28.12;53.03;98758.69;4958419;28;20214;-87
2023/07/22 01:25:23;;;;;;;5.97;2.10;;;;;;;28.14;52.85;98765.53;4960845;28;20176;-87
2023/07/22 01:27:53;;;;;;;5.22;2.67;;;;;;;28.28;53.04;98764.53;4994054;28;20176;-86
2023/07/22 01:30:19;;;;;;;7.47;2.33;;;;;;;28.21;52.64;98761.00;4990245;28;20200;-86
2023/07/22 01:32:47;;;;;;;6.60;2.60;;;;;;;28.32;52.82;98763.09;4975495;28;20181;-86
2023/07/22 01:35:13;;;;;;;4.75;2.38;;;;;;;28.55;51.92;98762.75;4975531;28;20185;-86
2023/07/22 01:37:40;;;;;;;4.53;1.52;;;;;;;28.68;51.37;98773.59;4994536;28;20630;-86
2023/07/22 01:40:13;;;;;;;4.75;2.35;;;;;;;28.72;50.96;98774.84;4994779;28;20171;-86
2023/07/22 01:42:41;;;;;;;4.55;2.50;;;;;;;28.74;51.64;98780.03;4977368;28;20180;-86
2023/07/22 01:45:09;;;;;;;12.43;2.58;;;;;;;28.75;51.57;98776.31;4984164;28;20218;-86
2023/07/22 01:47:35;;;;;;;6.72;2.60;;;;;;;28.76;51.50;98786.06;4975084;28;20188;-85
2023/07/22 01:50:03;;;;;;;5.05;1.80;;;;;;;28.74;51.90;98780.03;4987967;28;20188;-86
2023/07/22 01:52:30;;;;;;;7.00;2.55;;;;;;;28.84;51.41;98780.47;4957615;28;20656;-86
2023/07/22 01:54:56;;;;;;;7.00;2.55;;;;;;;28.84;50.91;98780.47;4964222;28;20590;-86
2023/07/22 01:57:23;;;;;;;5.25;2.00;;;;;;;28.81;51.64;98776.31;4961094;28;20184;-87
2023/07/22 01:59:50;;;;;;;4.93;2.22;;;;;;;28.82;51.09;98771.75;4948227;29;20247;-86
2023/07/22 02:02:16;;;;;;;4.60;2.38;;;;;;;28.79;51.26;98781.09;4962061;28;20218;-87
2023/07/22 02:04:43;;;;;;;4.68;2.10;;;;;;;28.86;51.18;98784.63;4974077;28;20271;-86
2023/07/22 02:07:10;;;;;;;5.43;2.75;;;;;;;28.80;51.19;98779.22;4974413;28;20184;-86
2023/07/22 02:09:36;;;;;;;5.18;2.35;;;;;;;28.68;52.18;98775.47;4958093;28;20196;-86
2023/07/22 02:12:04;;;;;;;4.65;2.25;;;;;;;28.50;52.52;98767.91;4974302;28;20207;-86
2023/07/22 02:14:30;;;;;;;6.07;2.10;;;;;;;28.45;53.13;98765.84;4957033;28;20223;-86
2023/07/22 02:16:57;;;;;;;4.72;2.20;;;;;;;28.44;53.20;98764.16;4956335;28;20630;-86
2023/07/22 02:19:24;;;;;;;3.70;2.00;;;;;;;28.45;53.02;98770.41;4973551;28;20199;-86
2023/07/22 02:21:50;;;;;;;9.02;2.28;;;;;;;28.52;52.47;98776.63;4969090;28;20306;-86
2023/07/22 02:24:17;;;;;;;5.95;2.00;;;;;;;28.62;52.40;98783.34;4974832;28;20184;-86
2023/07/22 02:26:45;;;;;;;7.60;2.78;;;;;;;28.66;52.11;98791.84;4974469;28;20212;-87
2023/07/22 02:29:12;;;;;;;9.15;3.10;;;;;;;28.71;51.75;98805.56;4983792;28;20614;-86
2023/07/22 02:31:39;;;;;;;5.75;2.60;;;;;;;28.72;51.72;98819.88;4976346;28;20290;-86
2023/07/22 02:34:06;;;;;;;6.95;3.10;;;;;;;28.65;52.14;98838.72;4988764;28;20219;-86
2023/07/22 02:36:33;;;;;;;6.75;2.97;;;;;;;28.64;51.63;98839.78;4974227;28;20184;-86
2023/07/22 02:38:59;;;;;;;7.00;2.50;;;;;;;28.63;51.44;98838.94;4957213;28;20594;-86
2023/07/22 02:41:25;;;;;;;8.23;3.03;;;;;;;28.59;51.26;98837.66;4973879;28;20223;-86
2023/07/22 02:43:52;;;;;;;7.50;2.55;;;;;;;28.51;51.52;98835.13;4973995;28;20227;-86
2023/07/22 02:46:19;;;;;;;4.60;2.72;;;;;;;28.44;51.70;98831.56;4974374;28;20266;-85
2023/07/22 02:48:45;;;;;;;4.68;2.60;;;;;;;28.41;51.73;98820.34;4938052;29;20631;-85
2023/07/22 02:51:12;;;;;;;6.80;2.75;;;;;;;28.33;52.57;98799.00;4964924;28;20243;-85
2023/07/22 02:53:40;;;;;;;5.68;2.67;;;;;;;28.25;52.87;98805.38;4973248;28;20184;-86
2023/07/22 02:56:08;;;;;;;5.32;2.63;;;;;;;28.20;52.68;98802.44;4981881;28;20188;-86
2023/07/22 02:58:36;;;;;;;7.03;2.90;;;;;;;28.22;53.06;98813.88;4975362;28;20713;-86
2023/07/22 03:01:08;;;;;;;6.82;3.00;;;;;;;28.15;53.35;98815.69;4991303;28;20191;-86
2023/07/22 03:03:35;;;;;;;5.93;2.40;;;;;;;28.16;53.26;98819.22;4976004;28;20194;-86
2023/07/22 03:06:03;;;;;;;10.43;2.63;;;;;;;28.16;53.55;98814.66;4976087;28;20195;-86
2023/07/22 03:08:31;;;;;;;8.10;2.90;;;;;;;28.14;53.34;98821.28;4971820;28;20282;-86
2023/07/22 03:10:57;;;;;;;5.15;2.60;;;;;;;28.11;53.69;98837.84;4963763;28;20215;-86
2023/07/22 03:13:22;;;;;;;4.38;2.45;;;;;;;28.04;54.07;98843.19;4975483;28;20184;-86
2023/07/22 03:15:49;;;;;;;6.47;3.10;;;;;;;28.03;54.24;98836.16;4958061;28;20275;-86
2023/07/22 03:18:16;;;;;;;6.63;3.20;;;;;;;28.13;55.21;98841.19;4974601;28;20195;-86
2023/07/22 03:20:41;;;;;;;8.10;3.13;;;;;;;28.12;54.87;98844.94;4954914;28;20185;-86
2023/07/22 03:23:08;;;;;;;7.13;3.67;;;;;;;28.11;55.54;98838.69;4973533;28;20195;-86
2023/07/22 03:25:35;;;;;;;7.50;3.30;;;;;;;28.12;55.92;98840.34;4957014;28;20184;-85
2023/07/22 03:28:06;;;;;;;8.88;4.13;;;;;;;28.09;56.76;98837.22;4977019;28;20195;-85
2023/07/22 03:30:33;;;;;;;6.80;3.60;;;;;;;28.02;56.71;98839.88;4976745;28;20319;-86
2023/07/22 03:33:00;;;;;;;10.05;4.65;;;;;;;27.98;57.02;98831.34;4962935;28;20177;-86
2023/07/22 03:35:27;;;;;;;18.50;4.57;;;;;;;27.98;57.22;98833.19;4960213;28;20180;-86
2023/07/22 03:37:54;;;;;;;7.40;3.90;;;;;;;28.03;57.98;98830.78;4991159;28;20194;-86
2023/07/22 03:40:26;;;;;;;9.80;4.40;;;;;;;28.03;58.07;98834.31;4979336;28;20176;-86
2023/07/22 03:42:54;;;;;;;8.02;4.45;;;;;;;27.94;59.01;98823.84;4997041;28;20152;-86
2023/07/22 03:45:21;;;;;;;7.53;4.30;;;;;;;27.91;59.16;98819.69;4995221;28;20192;-86
2023/07/22 03:47:52;;;;;;;10.63;3.97;;;;;;;27.90;59.17;98820.72;4991248;28;20184;-86
2023/07/22 03:50:18;;;;;;;10.75;4.22;;;;;;;27.90;59.33;98819.88;4995357;28;20563;-86
2023/07/22 03:52:45;;;;;;;7.72;3.95;;;;;;;27.89;59.35;98808.28;4971462;28;20263;-86
2023/07/22 03:55:12;;;;;;;7.38;3.60;;;;;;;27.93;59.06;98819.50;4978845;28;20262;-86
2023/07/22 03:57:37;;;;;;;9.25;3.97;;;;;;;27.98;58.46;98828.66;4996369;28;20210;-85
2023/07/22 04:00:09;;;;;;;10.98;4.10;;;;;;;28.00;58.93;98831.13;4995587;28;20184;-86
2023/07/22 04:02:35;;;;;;;8.23;3.58;;;;;;;28.01;58.45;98838.19;4996413;28;20200;-86
2023/07/22 04:05:03;;;;;;;6.63;3.55;;;;;;;28.03;58.49;98836.16;4996561;28;20226;-86
2023/07/22 04:07:29;;;;;;;8.93;3.97;;;;;;;28.02;58.71;98832.63;4996352;28;20183;-86
2023/07/22 04:09:56;;;;;;;6.43;4.07;;;;;;;28.05;58.47;98839.47;4995551;28;20322;-85
2023/07/22 04:12:22;;;;;;;7.75;4.07;;;;;;;28.05;59.06;98847.56;4992508;28;20195;-85
2023/07/22 04:14:49;;;;;;;6.30;3.80;;;;;;;28.06;59.50;98840.31;4978157;28;20270;-85
2023/07/22 04:17:15;;;;;;;10.65;4.78;;;;;;;28.09;59.61;98850.72;4995523;28;20262;-85
2023/07/22 04:19:46;;;;;;;8.32;4.28;;;;;;;28.14;59.41;98848.25;4995688;28;20194;-85
2023/07/22 04:22:11;;;;;;;6.95;3.88;;;;;;;28.21;59.32;98854.50;4978473;28;20379;-86
2023/07/22 04:24:38;;;;;;;8.93;3.95;;;;;;;28.23;59.68;98847.03;4994462;28;20219;-86
2023/07/22 04:27:05;;;;;;;7.13;4.10;;;;;;;28.24;60.16;98852.25;4994244;28;20191;-85
2023/07/22 04:29:32;;;;;;;8.13;3.88;;;;;;;28.31;60.01;98849.56;4977783;28;20180;-85
2023/07/22 04:32:00;;;;;;;10.95;4.63;;;;;;;28.36;59.75;98849.78;4978741;28;20282;-85
2023/07/22 04:34:31;;;;;;;7.55;3.88;;;;;;;28.29;60.25;98852.47;4987050;28;20198;-86
2023/07/22 04:36:58;;;;;;;8.48;4.18;;;;;;;28.37;60.11;98838.81;4980959;28;20180;-85
2023/07/22 04:39:25;;;;;;;13.10;4.82;;;;;;;28.48;59.64;98849.03;4995274;28;20187;-85
2023/07/22 04:41:52;;;;;;;7.65;4.82;;;;;;;28.61;59.29;98846.41;4960177;28;20175;-85
2023/07/22 04:44:19;;;;;;;10.13;4.80;;;;;;;28.74;59.41;98851.03;4976900;28;20253;-86
2023/07/22 04:46:46;;;;;;;8.88;4.50;;;;;;;28.85;59.71;98855.00;4959305;28;20168;-86
2023/07/22 04:49:12;;;;;;;10.45;4.95;;;;;;;28.81;59.72;98842.94;4957276;28;20288;-85
2023/07/22 04:51:39;;;;;;;10.63;5.05;;;;;;;28.91;59.11;98856.84;4964403;28;20295;-86
2023/07/22 04:54:05;;;;;;;9.07;4.80;;;;;;;29.00;58.82;98852.94;4966437;28;20639;-89
2023/07/22 04:56:40;;;;;;;11.00;5.00;;;;;;;29.02;58.40;98856.25;4967704;28;20187;-89
2023/07/22 04:59:06;;;;;;;9.82;5.15;;;;;;;28.89;58.86;98857.06;4955618;28;20192;-90
2023/07/22 05:01:33;;;;;;;8.23;4.97;;;;;;;28.97;59.13;98861.44;4973392;28;20231;-90
2023/07/22 05:04:00;;;;;;;8.80;5.10;;;;;;;29.06;58.78;98860.22;4973168;28;20189;-90
2023/07/22 05:06:29;;;;;;;9.25;5.13;;;;;;;29.10;58.92;98858.78;4963873;28;20193;-90
2023/07/22 05:08:57;;;;;;;12.48;5.68;;;;;;;28.92;58.72;98855.84;4972017;28;20586;-89
2023/07/22 05:11:23;;;;;;;9.70;4.57;;;;;;;28.71;59.51;98850.59;4976335;28;20200;-90
2023/07/22 05:13:50;;;;;;;12.65;5.75;;;;;;;28.97;58.84;98859.59;4968089;28;20189;-90
2023/07/22 05:16:15;;;;;;;8.07;5.00;;;;;;;29.13;58.34;98858.38;4949226;28;20191;-90
2023/07/22 05:18:41;;;;;;;10.25;4.63;;;;;;;29.61;57.31;98859.84;4971064;28;20180;-90
2023/07/22 05:21:06;;;;;;;8.45;5.07;;;;;;;29.69;57.10;98862.34;4973207;28;20246;-90
2023/07/22 05:23:32;;;;;;;12.50;4.63;;;;;;;30.18;56.03;98866.47;4969211;28;20548;-90
2023/07/22 05:25:57;;;;;;;7.00;4.13;;;;;;;30.49;54.92;98858.47;4965038;28;20177;-90
2023/07/22 05:28:23;;;;;;;10.63;4.63;;;;;;;30.66;54.04;98859.66;4969101;28;20222;-86
2023/07/22 05:30:48;;;;;;;7.82;4.22;;;;;;;30.72;53.49;98863.38;4962885;28;20609;-85
2023/07/22 05:33:15;;;;;;;7.93;4.32;;;;;;;30.90;53.12;98861.59;4967140;28;20276;-85
2023/07/22 05:35:42;;;;;;;8.25;4.18;;;;;;;31.05;52.50;98864.06;4964392;28;20204;-85
2023/07/22 05:38:09;;;;;;;8.75;4.20;;;;;;;31.20;51.32;98861.88;4961486;28;20195;-85
2023/07/22 05:40:34;;;;;;;13.57;4.53;;;;;;;31.32;50.78;98861.97;4975030;28;20655;-85
2023/07/22 05:43:00;;;;;;;9.75;4.22;;;;;;;31.24;51.52;98862.25;4974507;28;20223;-85
2023/07/22 05:45:41;;;;;;;7.70;4.25;;;;;;;31.09;51.78;98870.69;4970566;28;20192;-89
2023/07/22 05:48:33;;;;;;;9.15;4.43;;;;;;;30.89;52.89;98862.66;4954300;28;20227;-89
2023/07/22 05:51:28;;;;;;;8.55;4.88;;;;;;;31.02;52.02;98868.03;4957876;28;20220;-90
2023/07/22 05:57:31;;;;;;;;;;;;;;;;;;;;;
2023/07/22 06:00:23;;;;;;;;;;;;;;;;;;;;;
2023/07/22 06:16:17;;;;;;;10.45;4.80;;;;;;;30.55;54.13;98854.09;4911691;29;20696;-89
2023/07/22 06:18:53;;;;;;;7.78;4.13;;;;;;;30.38;55.08;98853.75;4917789;28;20193;-90
2023/07/22 06:21:18;;;;;;;7.28;4.90;;;;;;;30.65;55.07;98847.19;4969420;28;20216;-90
2023/07/22 06:24:03;;;;;;;6.95;3.53;;;;;;;30.84;53.56;98850.84;4953494;28;20654;-90
2023/07/22 06:26:30;;;;;;;5.82;4.20;;;;;;;31.20;52.40;98852.91;4973348;28;20188;-86
2023/07/22 06:28:57;;;;;;;7.90;3.97;;;;;;;31.05;52.93;98858.66;4979422;28;20290;-86
2023/07/22 06:31:23;;;;;;;8.20;4.47;;;;;;;31.31;51.24;98869.31;4981210;28;20191;-86
2023/07/22 06:33:50;;;;;;;9.23;4.03;;;;;;;31.44;51.92;98861.06;4976778;28;20184;-86
2023/07/22 06:36:17;;;;;;;6.25;4.20;;;;;;;31.76;50.78;98864.56;4971165;28;20243;-86
2023/07/22 06:38:44;;;;;;;11.05;4.10;;;;;;;31.88;49.98;98865.50;4972068;28;20546;-86
2023/07/22 06:41:11;;;;;;;6.80;3.75;;;;;;;31.95;50.29;98863.53;4972829;28;20183;-86
2023/07/22 06:43:37;;;;;;;10.57;3.95;;;;;;;32.18;50.42;98852.09;4979858;28;20188;-86
2023/07/22 06:46:04;;;;;;;8.38;3.80;;;;;;;32.38;48.19;98854.56;4973263;28;20279;-85
2023/07/22 06:48:31;;;;;;;8.50;3.90;;;;;;;32.46;49.08;98859.69;4973938;28;20708;-86
2023/07/22 06:50:58;;;;;;;6.13;3.38;;;;;;;32.72;48.41;98860.22;4974815;28;20204;-86
2023/07/22 06:53:24;;;;;;;5.13;3.78;;;;;;;32.89;46.91;98860.38;4973638;28;20180;-86
2023/07/22 06:55:52;;;;;;;7.93;4.05;;;;;;;32.70;46.75;98859.63;4979538;28;20180;-86
2023/07/22 06:58:19;;;;;;;7.22;4.30;;;;;;;32.91;47.59;98861.00;4975206;28;20610;-86
2023/07/22 07:00:46;;;;;;;9.02;3.88;;;;;;;32.80;47.32;98853.63;4962566;28;20215;-86
2023/07/22 07:03:13;;;;;;;9.13;3.92;;;;;;;33.01;46.24;98850.41;4960575;28;20199;-86
2023/07/22 07:05:41;;;;;;;8.35;3.72;;;;;;;33.39;45.65;98853.59;4980586;28;20678;-86
2023/07/22 07:08:10;;;;;;;7.78;4.07;;;;;;;33.38;45.49;98857.41;4961119;28;20605;-85
2023/07/22 07:10:39;;;;;;;7.72;3.60;;;;;;;33.74;44.45;98863.72;4976855;28;20596;-87
2023/07/22 07:13:06;;;;;;;12.15;3.97;;;;;;;33.98;43.15;98862.66;4977356;28;20192;-86
2023/07/22 07:15:33;;;;;;;7.68;3.08;;;;;;;34.07;43.37;98871.31;4978232;28;20192;-86
2023/07/22 07:18:00;;;;;;;8.85;3.75;;;;;;;34.14;43.40;98869.28;4977393;28;20191;-86
2023/07/22 07:20:27;;;;;;;8.00;3.55;;;;;;;34.29;43.28;98865.00;4982087;28;20195;-86
2023/07/22 07:22:53;;;;;;;6.25;3.17;;;;;;;34.32;42.93;98859.09;4977269;28;20622;-86
2023/07/22 07:25:20;;;;;;;7.13;3.22;;;;;;;34.48;42.19;98858.34;4977189;28;20188;-86
2023/07/22 07:27:48;;;;;;;9.57;3.72;;;;;;;34.71;42.52;98872.97;4977518;28;20188;-87
2023/07/22 07:30:14;;;;;;;6.90;3.55;;;;;;;34.89;41.77;98864.63;4977176;28;20531;-86
2023/07/22 07:32:41;;;;;;;6.22;3.20;;;;;;;35.14;41.36;98862.41;4959885;28;20550;-87
2023/07/22 07:35:08;;;;;;;6.38;3.60;;;;;;;35.18;41.35;98867.13;4977121;28;20192;-86
2023/07/22 07:37:34;;;;;;;5.57;3.22;;;;;;;35.31;41.26;98867.88;4988277;28;20585;-87
2023/07/22 07:40:02;;;;;;;7.22;3.42;;;;;;;35.49;40.69;98871.19;4971555;28;20180;-87
2023/07/22 07:42:28;;;;;;;5.70;3.22;;;;;;;35.82;39.93;98880.50;4959341;28;20192;-87
2023/07/22 07:44:55;;;;;;;5.95;3.05;;;;;;;35.78;39.54;98878.25;4976632;28;20188;-87
2023/07/22 07:47:22;;;;;;;6.53;4.28;;;;;;;35.24;40.32;98872.66;4973516;28;20302;-86
2023/07/22 07:49:49;;;;;;;8.05;3.28;;;;;;;35.76;40.86;98879.56;4979331;28;20199;-87
2023/07/22 07:52:15;;;;;;;8.23;3.53;;;;;;;35.47;39.67;98878.81;4992388;28;20573;-88
2023/07/22 07:54:42;;;;;;;5.70;3.47;;;;;;;35.99;39.81;98876.66;4979544;28;20209;-87
2023/07/22 07:57:09;;;;;;;6.95;3.30;;;;;;;36.43;39.49;98877.56;4981458;28;20273;-88
2023/07/22 07:59:35;;;;;;;9.35;3.85;;;;;;;36.93;37.19;98875.47;4990317;28;20191;-88
2023/07/22 08:02:02;;;;;;;7.25;3.42;;;;;;;37.12;38.12;98869.69;4978848;28;20197;-87
2023/07/22 08:04:29;;;;;;;7.35;3.35;;;;;;;37.20;37.23;98871.94;4989442;28;20197;-88
2023/07/22 08:06:56;;;;;;;5.70;3.45;;;;;;;37.26;38.94;98871.75;4977351;28;20180;-87
2023/07/22 08:09:22;;;;;;;5.68;3.20;;;;;;;37.19;37.29;98860.19;4976529;28;20172;-87
2023/07/22 08:11:49;;;;;;;6.80;3.53;;;;;;;37.24;37.98;98856.69;4983894;28;20215;-87
2023/07/22 08:14:17;;;;;;;10.23;4.38;;;;;;;37.56;36.46;98860.28;4981212;28;20256;-87
2023/07/22 08:16:44;;;;;;;6.35;3.92;;;;;;;37.91;36.47;98857.00;4988977;28;20532;-87
2023/07/22 08:19:12;;;;;;;8.88;3.15;;;;;;;37.93;36.42;98847.44;4976275;28;20195;-87
2023/07/22 08:21:41;;;;;;;6.38;3.50;;;;;;;38.03;36.35;98861.19;4986958;28;20292;-87
2023/07/22 08:24:16;;;;;;;7.18;3.55;;;;;;;38.20;35.67;98851.97;4994803;28;20225;-85
2023/07/22 08:26:41;;;;;;;9.02;3.55;;;;;;;38.62;34.99;98853.56;4978675;28;20191;-85
2023/07/22 08:29:06;;;;;;;9.82;3.78;;;;;;;38.92;34.82;98844.63;4995708;28;20211;-86
2023/07/22 08:31:32;;;;;;;6.63;3.75;;;;;;;38.97;35.12;98852.88;4978535;28;20813;-85
2023/07/22 08:33:57;;;;;;;6.28;3.80;;;;;;;38.87;33.11;98854.75;4995746;28;20176;-85
2023/07/22 08:36:23;;;;;;;6.65;3.08;;;;;;;38.88;33.33;98857.25;4995975;28;20175;-85
2023/07/22 08:38:48;;;;;;;5.47;3.50;;;;;;;38.73;34.68;98863.47;4995660;28;20186;-86
2023/07/22 08:41:15;;;;;;;7.38;3.63;;;;;;;38.99;34.72;98858.91;4995663;28;20524;-85
2023/07/22 08:43:42;;;;;;;7.45;3.47;;;;;;;39.03;33.78;98860.00;4996151;28;20172;-85
2023/07/22 08:46:09;;;;;;;9.85;3.75;;;;;;;39.10;34.36;98852.34;4994616;28;20176;-85
2023/07/22 08:48:36;;;;;;;6.95;3.60;;;;;;;39.29;33.48;98848.00;4995490;28;20314;-85
2023/07/22 08:51:10;;;;;;;7.28;3.55;;;;;;;39.26;34.21;98843.06;4995902;28;20191;-86
2023/07/22 08:53:36;;;;;;;6.25;3.53;;;;;;;39.64;33.60;98849.97;4978290;28;20182;-86
2023/07/22 08:56:02;;;;;;;6.60;3.67;;;;;;;40.03;33.44;98841.09;4995620;28;20175;-86
2023/07/22 08:58:29;;;;;;;7.75;3.33;;;;;;;40.26;31.72;98829.53;4995812;28;20258;-86
2023/07/22 09:00:55;;;;;;;7.50;3.17;;;;;;;40.22;32.17;98825.72;4995528;28;20172;-86
2023/07/22 09:03:21;;;;;;;6.90;3.33;;;;;;;39.85;32.32;98815.06;4994412;28;20184;-86
2023/07/22 09:05:47;;;;;;;7.53;3.45;;;;;;;40.20;32.15;98825.97;4994951;28;20716;-86
2023/07/22 09:08:13;;;;;;;7.40;3.83;;;;;;;40.01;33.13;98826.84;4994167;28;20525;-86
2023/07/22 09:10:41;;;;;;;6.95;3.80;;;;;;;39.95;34.14;98827.94;4994851;28;20194;-86
2023/07/22 09:13:07;;;;;;;8.43;3.80;;;;;;;40.08;33.83;98825.47;4995503;28;20176;-86
2023/07/22 09:15:36;;;;;;;8.98;3.80;;;;;;;40.21;32.00;98824.88;4994969;28;20636;-86
2023/07/22 09:18:03;;;;;;;8.18;3.78;;;;;;;40.47;32.43;98814.63;4994886;28;20207;-86
2023/07/22 09:20:29;;;;;;;10.48;4.05;;;;;;;40.54;32.85;98809.69;4995084;28;20202;-86
2023/07/22 09:22:54;;;;;;;7.72;3.60;;;;;;;40.68;31.13;98813.44;4988645;28;20256;-85
2023/07/22 09:25:24;;;;;;;8.57;3.83;;;;;;;40.89;30.79;98819.66;4975724;28;20184;-86
2023/07/22 09:27:52;;;;;;;7.35;4.00;;;;;;;41.10;30.41;98807.41;4975598;28;20187;-86
2023/07/22 09:30:44;;;;;;;7.07;3.47;;;;;;;41.08;31.30;98810.47;4970993;28;20527;-86
2023/07/22 09:33:22;;;;;;;7.30;3.53;;;;;;;41.04;31.24;98805.81;4991694;28;20191;-86
2023/07/22 09:35:49;;;;;;;6.88;4.32;;;;;;;41.03;31.92;98805.00;4994001;28;20641;-86
2023/07/22 09:38:23;;;;;;;6.65;3.25;;;;;;;40.95;31.19;98804.78;4994538;28;20179;-86
2023/07/22 09:40:50;;;;;;;8.13;3.42;;;;;;;40.91;31.14;98803.72;4994579;28;20246;-86
2023/07/22 09:43:17;;;;;;;7.90;3.33;;;;;;;40.96;31.96;98804.47;4992255;28;20184;-86
2023/07/22 09:45:47;;;;;;;5.60;3.30;;;;;;;41.13;32.28;98801.34;4987312;28;20191;-86
2023/07/22 09:48:13;;;;;;;7.55;3.55;;;;;;;41.28;31.54;98794.88;4958986;28;20242;-86
2023/07/22 09:50:39;;;;;;;9.38;3.97;;;;;;;41.46;30.17;98784.03;4993223;28;20235;-86
2023/07/22 09:53:04;;;;;;;8.15;4.13;;;;;;;41.51;31.66;98783.16;4993617;28;20226;-86
2023/07/22 09:55:33;;;;;;;8.70;3.38;;;;;;;41.52;30.43;98788.38;4985396;28;20180;-86
2023/07/22 09:58:03;;;;;;;6.63;3.53;;;;;;;41.60;30.19;98784.16;4981602;28;20545;-86
2023/07/22 10:00:31;;;;;;;8.10;3.80;;;;;;;41.72;30.65;98781.06;4985818;28;20188;-86
2023/07/22 10:02:58;;;;;;;6.05;3.58;;;;;;;41.86;30.13;98782.81;4976844;28;20540;-86
2023/07/22 10:05:26;;;;;;;7.43;3.45;;;;;;;41.95;29.92;98783.00;4985300;28;20334;-87
2023/07/22 10:07:57;;;;;;;6.35;3.47;;;;;;;41.95;29.33;98777.50;4993517;28;20676;-86
2023/07/22 10:10:37;;;;;;;6.18;3.60;;;;;;;41.99;29.36;98768.34;4986352;28;20727;-87
2023/07/22 10:13:04;;;;;;;8.68;3.42;;;;;;;41.97;29.57;98770.59;4993855;28;20179;-86
2023/07/22 10:15:34;;;;;;;5.22;3.67;;;;;;;42.09;28.46;98754.44;4973579;28;20193;-87
2023/07/22 10:18:02;;;;;;;8.80;3.55;;;;;;;41.94;29.90;98756.56;4975912;28;20198;-86
2023/07/22 10:20:30;;;;;;;7.68;3.95;;;;;;;41.81;29.13;98751.75;4991643;28;20254;-87
2023/07/22 10:23:03;;;;;;;10.55;3.45;;;;;;;41.75;29.63;98744.69;4968714;28;20227;-88
2023/07/22 10:25:32;;;;;;;7.97;3.42;;;;;;;41.81;29.82;98746.25;4966401;28;20200;-88
2023/07/22 10:27:59;;;;;;;6.55;3.38;;;;;;;42.07;28.97;98740.16;4959320;28;20279;-88
2023/07/22 10:30:25;;;;;;;7.70;3.30;;;;;;;42.23;29.60;98733.38;4946635;29;20259;-88
2023/07/22 10:32:55;;;;;;;10.82;3.35;;;;;;;42.45;29.48;98730.03;4962109;28;20188;-88
2023/07/22 10:35:44;;;;;;;6.88;3.75;;;;;;;42.82;27.78;98729.25;4979637;28;20518;-89
2023/07/22 10:38:15;;;;;;;5.85;3.38;;;;;;;42.87;27.89;98725.56;4978758;28;20180;-88
2023/07/22 10:40:54;;;;;;;10.57;3.45;;;;;;;42.71;28.13;98722.25;4999921;28;20185;-88
2023/07/22 10:43:34;;;;;;;8.07;3.78;;;;;;;42.66;27.56;98716.81;4988336;28;20183;-88
2023/07/22 10:46:12;;;;;;;6.88;3.60;;;;;;;42.87;27.46;98726.41;4978359;28;20160;-89
2023/07/22 10:48:41;;;;;;;12.00;3.63;;;;;;;42.24;29.10;98710.22;4972322;28;20222;-88
2023/07/22 10:51:15;;;;;;;7.80;3.83;;;;;;;42.11;29.17;98707.34;4962314;28;20200;-88
2023/07/22 10:53:47;;;;;;;7.97;4.18;;;;;;;42.20;28.50;98711.91;4979401;28;20226;-88
2023/07/22 10:56:27;;;;;;;5.60;3.33;;;;;;;42.34;28.46;98705.66;4979448;28;20203;-88
2023/07/22 10:58:53;;;;;;;5.65;3.20;;;;;;;42.66;28.41;98709.34;4980128;28;20215;-88
2023/07/22 11:01:27;;;;;;;5.65;3.47;;;;;;;42.98;26.63;98703.06;4981164;28;20175;-87
2023/07/22 11:04:17;;;;;;;7.55;5.03;;;;;;;43.15;27.41;98697.81;4980624;28;20227;-88
2023/07/22 11:06:53;;;;;;;12.60;7.90;;;;;;;43.33;26.53;98696.13;4981188;28;20164;-87
2023/07/22 11:09:32;;;;;;;11.15;4.25;;;;;;;43.43;26.64;98693.16;4980846;28;20156;-87
2023/07/22 11:12:10;;;;;;;9.93;4.72;;;;;;;43.56;27.07;98688.81;4981309;28;20191;-88
2023/07/22 11:14:47;;;;;;;7.20;3.67;;;;;;;43.64;26.99;98688.88;4981115;28;20293;-87
2023/07/22 11:17:14;;;;;;;8.02;3.45;;;;;;;43.63;26.43;98694.72;4980812;28;20156;-88
2023/07/22 11:19:41;;;;;;;10.98;4.32;;;;;;;43.59;26.97;98691.75;4980312;28;20673;-87
2023/07/22 11:22:07;;;;;;;12.38;3.97;;;;;;;43.34;26.00;98687.56;4980042;28;20277;-87
2023/07/22 11:24:38;;;;;;;6.85;3.08;;;;;;;43.47;25.59;98691.44;4979524;28;20220;-86
2023/07/22 11:27:06;;;;;;;13.38;8.60;;;;;;;43.39;26.86;98679.19;4979352;28;20278;-86
2023/07/22 11:29:34;;;;;;;5.55;3.45;;;;;;;42.82;27.29;98685.91;4959435;29;20206;-86
2023/07/22 11:32:02;;;;;;;7.28;3.50;;;;;;;42.81;25.26;98681.53;4976457;28;20207;-85
2023/07/22 11:34:29;;;;;;;12.13;3.63;;;;;;;43.32;26.87;98686.22;4980310;28;20270;-85
2023/07/22 11:36:57;;;;;;;8.25;3.92;;;;;;;43.70;25.27;98684.09;4980324;28;20262;-85
2023/07/22 11:39:26;;;;;;;9.30;3.83;;;;;;;43.75;25.46;98687.59;4980252;28;20644;-85
2023/07/22 11:41:52;;;;;;;7.50;3.28;;;;;;;43.52;25.76;98677.53;4980797;28;20199;-85
2023/07/22 11:44:21;;;;;;;10.30;3.22;;;;;;;43.89;26.18;98680.13;4980231;28;20189;-85
2023/07/22 11:47:00;;;;;;;8.05;3.60;;;;;;;44.03;25.38;98671.00;4977687;28;20231;-86
2023/07/22 11:49:42;;;;;;;6.45;3.60;;;;;;;44.23;24.68;98665.88;4977462;28;20495;-85
2023/07/22 11:52:17;;;;;;;5.47;3.25;;;;;;;44.39;24.83;98669.09;4977353;28;20266;-85
2023/07/22 11:54:45;;;;;;;16.63;10.32;;;;;;;44.21;25.78;98664.56;4977400;28;20322;-85
2023/07/22 11:57:20;;;;;;;11.27;5.03;;;;;;;43.87;24.95;98657.50;4977042;28;20180;-85